CheckWX is a tool to help pilots better visualize weather data.  It is not intended as a substitute for an official pre-flight weather briefing.

16:28:32 UTC

CYKA METAR
Kamloops Airport
Kamloops, British Columbia, Canada
Current

29 mins ago

CYKA 111600Z 07008KT 40SM OVC180 18/09 A3000 RMK AC8 SLP162 DENSITY ALT 1600FT
Observed
Jul-11 @ 16:00 UTC
Wind
  • 070° at 8 KTS
Visibility
40 SM
Flight Rules
VFR
Cloud Levels
  • Overcast at 18,000' AGL
Temperature
18°C / 64°F
Dewpoint
C / 48°F
Humidity
56%
Altimeter
30" Hg
Pressure
1015.92 hPa
Previous

1 hour ago

CYKA 111500Z 09007KT 40SM BKN190 OVC210 16/08 A3002 RMK AC5CI3 SLP168 DENSITY ALT 1400FT
Observed
Jul-11 @ 15:00 UTC
Wind
  • 090° at 7 KTS
Visibility
40 SM
Flight Rules
VFR
Cloud Levels
  • Broken at 19,000' AGL
  • Overcast at 21,000' AGL
Temperature
16°C / 61°F
Dewpoint
C / 46°F
Humidity
59%
Altimeter
30.02" Hg
Pressure
1016.62 hPa
Previous

2 hours ago

CYKA 111400Z 11008KT 40SM BKN170 BKN220 15/08 A3002 RMK AC5CI2 SLP168 DENSITY ALT 1300FT
Observed
Jul-11 @ 14:00 UTC
Wind
  • 110° at 8 KTS
Visibility
40 SM
Flight Rules
VFR
Cloud Levels
  • Broken at 17,000' AGL
  • Broken at 22,000' AGL
Temperature
15°C / 59°F
Dewpoint
C / 46°F
Humidity
63%
Altimeter
30.02" Hg
Pressure
1016.62 hPa